sensor_id;sensor_type;location;lat;lon;timestamp;pressure;altitude;pressure_sealevel;temperature;humidity
72210;BME280;60113;48.762;12.302;2023-03-18T00:02:21;96848.00;;;-0.42;78.58
72210;BME280;60113;48.762;12.302;2023-03-18T00:04:49;96849.91;;;-0.47;79.25
72210;BME280;60113;48.762;12.302;2023-03-18T00:07:15;96856.31;;;-0.57;78.17
72210;BME280;60113;48.762;12.302;2023-03-18T00:09:41;96859.13;;;-0.64;76.45
72210;BME280;60113;48.762;12.302;2023-03-18T00:12:06;96862.00;;;-0.71;76.85
72210;BME280;60113;48.762;12.302;2023-03-18T00:14:33;96862.94;;;-0.74;76.23
72210;BME280;60113;48.762;12.302;2023-03-18T00:17:02;96863.75;;;-0.72;72.59
72210;BME280;60113;48.762;12.302;2023-03-18T00:19:28;96858.53;;;-0.70;73.88
72210;BME280;60113;48.762;12.302;2023-03-18T00:21:53;96864.59;;;-0.71;70.18
72210;BME280;60113;48.762;12.302;2023-03-18T00:24:20;96863.47;;;-0.64;78.77
72210;BME280;60113;48.762;12.302;2023-03-18T00:26:45;96870.47;;;-0.68;73.75
72210;BME280;60113;48.762;12.302;2023-03-18T00:29:13;96867.81;;;-0.66;77.33
72210;BME280;60113;48.762;12.302;2023-03-18T00:31:39;96868.97;;;-0.73;72.84
72210;BME280;60113;48.762;12.302;2023-03-18T00:34:05;96857.91;;;-0.77;69.22
72210;BME280;60113;48.762;12.302;2023-03-18T00:36:32;96848.53;;;-0.80;66.64
72210;BME280;60113;48.762;12.302;2023-03-18T00:39:00;96856.41;;;-0.83;72.58
72210;BME280;60113;48.762;12.302;2023-03-18T00:41:28;96863.44;;;-0.88;80.09
72210;BME280;60113;48.762;12.302;2023-03-18T00:43:56;96868.16;;;-0.99;78.34
72210;BME280;60113;48.762;12.302;2023-03-18T00:48:48;96868.81;;;-1.18;76.70
72210;BME280;60113;48.762;12.302;2023-03-18T00:51:14;96877.59;;;-1.24;77.79
72210;BME280;60113;48.762;12.302;2023-03-18T00:53:46;96875.22;;;-1.30;75.35
72210;BME280;60113;48.762;12.302;2023-03-18T00:56:12;96870.34;;;-1.38;72.07
72210;BME280;60113;48.762;12.302;2023-03-18T00:58:38;96869.66;;;-1.43;71.94
72210;BME280;60113;48.762;12.302;2023-03-18T01:01:08;96879.25;;;-1.48;74.82
72210;BME280;60113;48.762;12.302;2023-03-18T01:03:34;96875.16;;;-1.54;77.88
72210;BME280;60113;48.762;12.302;2023-03-18T01:06:00;96888.09;;;-1.56;77.48
72210;BME280;60113;48.762;12.302;2023-03-18T01:08:27;96882.16;;;-1.58;74.75
72210;BME280;60113;48.762;12.302;2023-03-18T01:10:52;96887.03;;;-1.50;75.58
72210;BME280;60113;48.762;12.302;2023-03-18T01:13:17;96886.78;;;-1.42;72.18
72210;BME280;60113;48.762;12.302;2023-03-18T01:15:44;96891.69;;;-1.34;74.06
72210;BME280;60113;48.762;12.302;2023-03-18T01:18:09;96893.00;;;-1.22;76.73
72210;BME280;60113;48.762;12.302;2023-03-18T01:20:40;96894.66;;;-1.20;77.66
72210;BME280;60113;48.762;12.302;2023-03-18T01:23:09;96905.13;;;-1.24;80.22
72210;BME280;60113;48.762;12.302;2023-03-18T01:25:34;96904.63;;;-1.36;79.13
72210;BME280;60113;48.762;12.302;2023-03-18T01:27:59;96899.16;;;-1.52;76.77
72210;BME280;60113;48.762;12.302;2023-03-18T01:30:28;96909.81;;;-1.63;67.59
72210;BME280;60113;48.762;12.302;2023-03-18T01:32:53;96898.97;;;-1.73;66.75
72210;BME280;60113;48.762;12.302;2023-03-18T01:35:19;96900.81;;;-1.78;68.24
72210;BME280;60113;48.762;12.302;2023-03-18T01:37:48;96902.72;;;-1.83;72.41
72210;BME280;60113;48.762;12.302;2023-03-18T01:40:14;96903.69;;;-1.88;72.61
72210;BME280;60113;48.762;12.302;2023-03-18T01:42:40;96897.81;;;-1.91;75.17
72210;BME280;60113;48.762;12.302;2023-03-18T01:45:09;96900.53;;;-1.96;76.93
72210;BME280;60113;48.762;12.302;2023-03-18T01:47:34;96896.44;;;-2.02;77.26
72210;BME280;60113;48.762;12.302;2023-03-18T01:50:00;96895.75;;;-2.08;78.46
72210;BME280;60113;48.762;12.302;2023-03-18T01:52:26;96893.44;;;-2.16;77.26
72210;BME280;60113;48.762;12.302;2023-03-18T01:54:57;96901.19;;;-2.18;79.35
72210;BME280;60113;48.762;12.302;2023-03-18T01:57:26;96908.19;;;-2.23;78.66
72210;BME280;60113;48.762;12.302;2023-03-18T01:59:52;96903.09;;;-2.24;78.50
72210;BME280;60113;48.762;12.302;2023-03-18T02:02:19;96910.00;;;-2.25;79.72
72210;BME280;60113;48.762;12.302;2023-03-18T02:04:49;96915.25;;;-2.28;76.98
72210;BME280;60113;48.762;12.302;2023-03-18T02:07:17;96911.78;;;-2.27;78.98
72210;BME280;60113;48.762;12.302;2023-03-18T02:09:44;96917.00;;;-2.30;75.83
72210;BME280;60113;48.762;12.302;2023-03-18T02:12:10;96914.53;;;-2.33;77.30
72210;BME280;60113;48.762;12.302;2023-03-18T02:14:37;96923.97;;;-2.34;78.68
72210;BME280;60113;48.762;12.302;2023-03-18T02:17:05;96919.72;;;-2.35;77.92
72210;BME280;60113;48.762;12.302;2023-03-18T02:19:53;96915.47;;;-2.36;77.28
72210;BME280;60113;48.762;12.302;2023-03-18T02:22:23;96918.88;;;-2.35;71.41
72210;BME280;60113;48.762;12.302;2023-03-18T02:27:34;96928.66;;;-2.18;74.96
72210;BME280;60113;48.762;12.302;2023-03-18T02:30:05;96932.84;;;-2.14;78.88
72210;BME280;60113;48.762;12.302;2023-03-18T02:32:32;96938.03;;;-2.16;76.04
72210;BME280;60113;48.762;12.302;2023-03-18T02:34:58;96932.00;;;-2.15;79.16
72210;BME280;60113;48.762;12.302;2023-03-18T02:37:25;96926.13;;;-2.20;79.06
72210;BME280;60113;48.762;12.302;2023-03-18T02:39:50;96934.00;;;-2.24;67.80
72210;BME280;60113;48.762;12.302;2023-03-18T02:42:26;96936.59;;;-2.26;71.01
72210;BME280;60113;48.762;12.302;2023-03-18T02:44:51;96931.50;;;-2.28;74.93
72210;BME280;60113;48.762;12.302;2023-03-18T02:47:17;96929.06;;;-2.32;77.17
72210;BME280;60113;48.762;12.302;2023-03-18T02:49:45;96926.63;;;-2.37;78.71
72210;BME280;60113;48.762;12.302;2023-03-18T02:52:10;96922.56;;;-2.44;77.58
72210;BME280;60113;48.762;12.302;2023-03-18T02:54:36;96923.66;;;-2.53;77.78
72210;BME280;60113;48.762;12.302;2023-03-18T02:57:01;96929.78;;;-2.57;76.71
72210;BME280;60113;48.762;12.302;2023-03-18T02:59:27;96936.72;;;-2.59;77.59
72210;BME280;60113;48.762;12.302;2023-03-18T03:01:53;96929.94;;;-2.64;79.01
72210;BME280;60113;48.762;12.302;2023-03-18T03:04:19;96942.09;;;-2.69;78.49
72210;BME280;60113;48.762;12.302;2023-03-18T03:06:45;96946.44;;;-2.71;79.05
72210;BME280;60113;48.762;12.302;2023-03-18T03:09:12;96942.19;;;-2.72;80.55
72210;BME280;60113;48.762;12.302;2023-03-18T03:11:38;96946.50;;;-2.72;79.95
72210;BME280;60113;48.762;12.302;2023-03-18T03:14:04;96944.75;;;-2.72;82.73
72210;BME280;60113;48.762;12.302;2023-03-18T03:16:29;96949.91;;;-2.72;82.04
72210;BME280;60113;48.762;12.302;2023-03-18T03:18:55;96956.69;;;-2.69;83.42
72210;BME280;60113;48.762;12.302;2023-03-18T03:21:21;96959.22;;;-2.68;77.75
72210;BME280;60113;48.762;12.302;2023-03-18T03:23:46;96961.66;;;-2.63;78.96
72210;BME280;60113;48.762;12.302;2023-03-18T03:26:12;96967.47;;;-2.55;77.66
72210;BME280;60113;48.762;12.302;2023-03-18T03:28:37;96963.91;;;-2.51;76.73
72210;BME280;60113;48.762;12.302;2023-03-18T03:31:03;96964.66;;;-2.47;81.30
72210;BME280;60113;48.762;12.302;2023-03-18T03:33:29;96964.66;;;-2.47;83.67
72210;BME280;60113;48.762;12.302;2023-03-18T03:35:55;96969.09;;;-2.52;83.23
72210;BME280;60113;48.762;12.302;2023-03-18T03:38:23;96964.97;;;-2.58;83.46
72210;BME280;60113;48.762;12.302;2023-03-18T03:40:49;96971.97;;;-2.63;83.04
72210;BME280;60113;48.762;12.302;2023-03-18T03:43:15;96967.88;;;-2.70;79.33
72210;BME280;60113;48.762;12.302;2023-03-18T03:45:41;96973.16;;;-2.75;74.30
72210;BME280;60113;48.762;12.302;2023-03-18T03:48:08;96973.19;;;-2.77;75.93
72210;BME280;60113;48.762;12.302;2023-03-18T03:50:34;96973.28;;;-2.80;78.74
72210;BME280;60113;48.762;12.302;2023-03-18T03:53:02;96978.47;;;-2.81;80.57
72210;BME280;60113;48.762;12.302;2023-03-18T03:55:29;96983.63;;;-2.83;81.04
72210;BME280;60113;48.762;12.302;2023-03-18T03:57:54;96987.16;;;-2.85;81.65
72210;BME280;60113;48.762;12.302;2023-03-18T04:00:20;96980.28;;;-2.86;80.19
72210;BME280;60113;48.762;12.302;2023-03-18T04:02:48;96978.63;;;-2.87;81.44
72210;BME280;60113;48.762;12.302;2023-03-18T04:05:14;96985.50;;;-2.90;81.41
72210;BME280;60113;48.762;12.302;2023-03-18T04:07:41;96986.41;;;-2.91;82.57
72210;BME280;60113;48.762;12.302;2023-03-18T04:10:07;96987.31;;;-2.92;82.17
72210;BME280;60113;48.762;12.302;2023-03-18T04:12:34;96986.44;;;-2.92;80.98
72210;BME280;60113;48.762;12.302;2023-03-18T04:14:59;96988.16;;;-2.93;72.99
72210;BME280;60113;48.762;12.302;2023-03-18T04:17:25;96989.88;;;-2.92;76.27
72210;BME280;60113;48.762;12.302;2023-03-18T04:19:53;96989.91;;;-2.93;71.89
72210;BME280;60113;48.762;12.302;2023-03-18T04:22:18;97002.69;;;-2.90;76.51
72210;BME280;60113;48.762;12.302;2023-03-18T04:24:44;96993.22;;;-2.90;76.38
72210;BME280;60113;48.762;12.302;2023-03-18T04:27:09;96989.75;;;-2.87;76.99
72210;BME280;60113;48.762;12.302;2023-03-18T04:29:35;96987.06;;;-2.82;77.89
72210;BME280;60113;48.762;12.302;2023-03-18T04:32:03;96989.50;;;-2.78;74.59
72210;BME280;60113;48.762;12.302;2023-03-18T04:34:29;96991.94;;;-2.71;75.54
72210;BME280;60113;48.762;12.302;2023-03-18T04:36:54;97001.25;;;-2.67;72.22
72210;BME280;60113;48.762;12.302;2023-03-18T04:39:20;96992.63;;;-2.66;72.25
72210;BME280;60113;48.762;12.302;2023-03-18T04:41:46;96995.19;;;-2.66;71.82
72210;BME280;60113;48.762;12.302;2023-03-18T04:44:11;97001.13;;;-2.62;76.79
72210;BME280;60113;48.762;12.302;2023-03-18T04:46:37;97006.31;;;-2.64;79.38
72210;BME280;60113;48.762;12.302;2023-03-18T04:49:03;97002.91;;;-2.66;75.44
72210;BME280;60113;48.762;12.302;2023-03-18T04:51:28;96997.84;;;-2.69;68.51
72210;BME280;60113;48.762;12.302;2023-03-18T04:53:54;96991.00;;;-2.69;70.12
72210;BME280;60113;48.762;12.302;2023-03-18T04:56:19;97002.91;;;-2.66;76.13
72210;BME280;60113;48.762;12.302;2023-03-18T04:58:45;96996.94;;;-2.67;77.99
72210;BME280;60113;48.762;12.302;2023-03-18T05:01:11;96999.44;;;-2.65;79.10
72210;BME280;60113;48.762;12.302;2023-03-18T05:03:37;97001.19;;;-2.66;79.26
72210;BME280;60113;48.762;12.302;2023-03-18T05:06:03;96998.63;;;-2.66;75.95
72210;BME280;60113;48.762;12.302;2023-03-18T05:08:28;97005.44;;;-2.65;77.62
72210;BME280;60113;48.762;12.302;2023-03-18T05:10:53;96996.84;;;-2.64;79.56
72210;BME280;60113;48.762;12.302;2023-03-18T05:13:19;97005.44;;;-2.65;78.95
72210;BME280;60113;48.762;12.302;2023-03-18T05:15:44;97005.50;;;-2.66;79.49
72210;BME280;60113;48.762;12.302;2023-03-18T05:18:10;97004.72;;;-2.68;80.12
72210;BME280;60113;48.762;12.302;2023-03-18T05:20:35;97007.28;;;-2.68;76.64
72210;BME280;60113;48.762;12.302;2023-03-18T05:23:02;97001.19;;;-2.66;78.48
72210;BME280;60113;48.762;12.302;2023-03-18T05:25:29;97005.50;;;-2.66;76.26
72210;BME280;60113;48.762;12.302;2023-03-18T05:27:55;96997.72;;;-2.65;73.04
72210;BME280;60113;48.762;12.302;2023-03-18T05:30:24;96997.53;;;-2.57;75.97
72210;BME280;60113;48.762;12.302;2023-03-18T05:32:49;97006.84;;;-2.53;71.78
72210;BME280;60113;48.762;12.302;2023-03-18T05:35:15;96997.97;;;-2.41;78.17
72210;BME280;60113;48.762;12.302;2023-03-18T05:37:41;97008.03;;;-2.33;79.98
72210;BME280;60113;48.762;12.302;2023-03-18T05:40:07;97015.72;;;-2.31;73.95
72210;BME280;60113;48.762;12.302;2023-03-18T05:42:36;97000.91;;;-2.24;76.10
72210;BME280;60113;48.762;12.302;2023-03-18T05:45:02;97010.28;;;-2.20;80.02
72210;BME280;60113;48.762;12.302;2023-03-18T05:47:29;97007.59;;;-2.17;79.29
72210;BME280;60113;48.762;12.302;2023-03-18T05:49:57;97010.03;;;-2.12;80.17
72210;BME280;60113;48.762;12.302;2023-03-18T05:52:23;97011.63;;;-2.08;80.29
72210;BME280;60113;48.762;12.302;2023-03-18T05:54:48;97014.97;;;-2.05;76.40
72210;BME280;60113;48.762;12.302;2023-03-18T05:57:15;97015.56;;;-1.96;78.52
72210;BME280;60113;48.762;12.302;2023-03-18T05:59:41;97011.00;;;-1.86;81.70
72210;BME280;60113;48.762;12.302;2023-03-18T06:02:06;97014.28;;;-1.81;75.73
72210;BME280;60113;48.762;12.302;2023-03-18T06:04:32;97014.84;;;-1.71;73.60
72210;BME280;60113;48.762;12.302;2023-03-18T06:06:57;97011.09;;;-1.61;74.68
72210;BME280;60113;48.762;12.302;2023-03-18T06:09:23;97011.66;;;-1.51;73.94
72210;BME280;60113;48.762;12.302;2023-03-18T06:11:50;97014.72;;;-1.38;77.80
72210;BME280;60113;48.762;12.302;2023-03-18T06:14:15;97018.66;;;-1.28;77.82
72210;BME280;60113;48.762;12.302;2023-03-18T06:16:41;97022.63;;;-1.17;79.10
72210;BME280;60113;48.762;12.302;2023-03-18T06:19:07;97024.91;;;-1.08;74.19
72210;BME280;60113;48.762;12.302;2023-03-18T06:21:33;97026.28;;;-0.97;74.59
72210;BME280;60113;48.762;12.302;2023-03-18T06:23:58;97032.00;;;-0.88;71.37
72210;BME280;60113;48.762;12.302;2023-03-18T06:26:24;97037.59;;;-0.74;74.19
72210;BME280;60113;48.762;12.302;2023-03-18T06:28:52;97033.75;;;-0.63;77.35
72210;BME280;60113;48.762;12.302;2023-03-18T06:31:18;97033.28;;;-0.48;79.58
72210;BME280;60113;48.762;12.302;2023-03-18T06:33:43;97027.72;;;-0.38;80.40
72210;BME280;60113;48.762;12.302;2023-03-18T06:36:09;97034.09;;;-0.22;80.71
72210;BME280;60113;48.762;12.302;2023-03-18T06:38:35;97037.84;;;-0.07;80.11
72210;BME280;60113;48.762;12.302;2023-03-18T06:41:00;97036.38;;;0.09;81.02
72210;BME280;60113;48.762;12.302;2023-03-18T06:43:27;97034.84;;;0.28;81.04
72210;BME280;60113;48.762;12.302;2023-03-18T06:45:52;97031.50;;;0.48;74.75
72210;BME280;60113;48.762;12.302;2023-03-18T06:48:18;97037.50;;;0.71;74.77
72210;BME280;60113;48.762;12.302;2023-03-18T06:50:44;97024.59;;;0.92;75.42
72210;BME280;60113;48.762;12.302;2023-03-18T06:53:10;97025.56;;;1.11;76.80
72210;BME280;60113;48.762;12.302;2023-03-18T06:55:39;97033.31;;;1.32;77.01
72210;BME280;60113;48.762;12.302;2023-03-18T06:58:08;97029.16;;;1.49;77.80
72210;BME280;60113;48.762;12.302;2023-03-18T07:00:34;97027.59;;;1.66;77.38
72210;BME280;60113;48.762;12.302;2023-03-18T07:03:02;97031.91;;;1.86;73.94
72210;BME280;60113;48.762;12.302;2023-03-18T07:05:29;97021.47;;;2.07;74.83
72210;BME280;60113;48.762;12.302;2023-03-18T07:07:54;97026.69;;;2.26;74.98
72210;BME280;60113;48.762;12.302;2023-03-18T07:10:22;97026.03;;;2.40;75.14
72210;BME280;60113;48.762;12.302;2023-03-18T07:12:48;97031.47;;;2.53;77.42
72210;BME280;60113;48.762;12.302;2023-03-18T07:15:14;97035.88;;;2.70;75.78
72210;BME280;60113;48.762;12.302;2023-03-18T07:17:43;97036.66;;;2.90;76.60
72210;BME280;60113;48.762;12.302;2023-03-18T07:20:09;97039.69;;;3.18;76.22
72210;BME280;60113;48.762;12.302;2023-03-18T07:22:34;97044.47;;;3.43;75.73
72210;BME280;60113;48.762;12.302;2023-03-18T07:25:01;97042.38;;;3.68;73.90
72210;BME280;60113;48.762;12.302;2023-03-18T07:27:36;97046.38;;;3.91;74.72
72210;BME280;60113;48.762;12.302;2023-03-18T07:30:02;97041.56;;;4.17;74.85
72210;BME280;60113;48.762;12.302;2023-03-18T07:32:27;97053.25;;;4.42;75.32
72210;BME280;60113;48.762;12.302;2023-03-18T07:34:54;97057.03;;;4.69;74.88
72210;BME280;60113;48.762;12.302;2023-03-18T07:37:24;97057.06;;;4.99;75.78
72210;BME280;60113;48.762;12.302;2023-03-18T07:39:49;97065.47;;;5.35;75.27
72210;BME280;60113;48.762;12.302;2023-03-18T07:42:18;97064.72;;;5.64;76.16
72210;BME280;60113;48.762;12.302;2023-03-18T07:44:47;97060.66;;;5.89;76.39
72210;BME280;60113;48.762;12.302;2023-03-18T07:47:12;97057.28;;;6.01;75.85
72210;BME280;60113;48.762;12.302;2023-03-18T07:49:40;97065.72;;;6.07;76.47
72210;BME280;60113;48.762;12.302;2023-03-18T07:52:08;97066.19;;;6.13;75.00
72210;BME280;60113;48.762;12.302;2023-03-18T07:54:34;97065.81;;;6.20;74.41
72210;BME280;60113;48.762;12.302;2023-03-18T07:56:59;97076.25;;;6.20;75.07
72210;BME280;60113;48.762;12.302;2023-03-18T07:59:25;97074.00;;;6.28;74.09
72210;BME280;60113;48.762;12.302;2023-03-18T08:01:51;97073.81;;;6.17;74.40
72210;BME280;60113;48.762;12.302;2023-03-18T08:04:16;97073.34;;;6.24;74.28
72210;BME280;60113;48.762;12.302;2023-03-18T08:06:42;97071.28;;;6.30;74.40
72210;BME280;60113;48.762;12.302;2023-03-18T08:09:07;97078.44;;;6.41;74.86
72210;BME280;60113;48.762;12.302;2023-03-18T08:11:33;97078.25;;;6.58;74.23
72210;BME280;60113;48.762;12.302;2023-03-18T08:13:58;97070.56;;;6.70;72.92
72210;BME280;60113;48.762;12.302;2023-03-18T08:16:24;97069.59;;;6.85;72.75
72210;BME280;60113;48.762;12.302;2023-03-18T08:18:50;97072.72;;;7.05;71.94
72210;BME280;60113;48.762;12.302;2023-03-18T08:21:15;97064.41;;;7.26;70.80
72210;BME280;60113;48.762;12.302;2023-03-18T08:23:40;97065.06;;;7.43;71.21
72210;BME280;60113;48.762;12.302;2023-03-18T08:26:06;97068.44;;;7.58;68.69
72210;BME280;60113;48.762;12.302;2023-03-18T08:28:32;97076.19;;;7.72;67.96
72210;BME280;60113;48.762;12.302;2023-03-18T08:30:58;97070.03;;;7.99;68.58
72210;BME280;60113;48.762;12.302;2023-03-18T08:33:24;97071.38;;;8.18;66.42
72210;BME280;60113;48.762;12.302;2023-03-18T08:35:50;97077.75;;;8.40;67.12
72210;BME280;60113;48.762;12.302;2023-03-18T08:38:16;97073.19;;;8.68;66.44
72210;BME280;60113;48.762;12.302;2023-03-18T08:40:42;97074.72;;;8.84;64.78
72210;BME280;60113;48.762;12.302;2023-03-18T08:43:10;97070.31;;;9.09;64.67
72210;BME280;60113;48.762;12.302;2023-03-18T08:45:35;97067.66;;;9.22;63.05
72210;BME280;60113;48.762;12.302;2023-03-18T08:48:01;97062.78;;;9.29;62.08
72210;BME280;60113;48.762;12.302;2023-03-18T08:50:26;97068.50;;;9.34;63.47
72210;BME280;60113;48.762;12.302;2023-03-18T08:52:55;97068.38;;;9.24;63.06
72210;BME280;60113;48.762;12.302;2023-03-18T08:55:22;97067.31;;;9.38;64.40
72210;BME280;60113;48.762;12.302;2023-03-18T08:57:49;97069.88;;;9.51;64.04
72210;BME280;60113;48.762;12.302;2023-03-18T09:00:14;97066.22;;;9.65;64.02
72210;BME280;60113;48.762;12.302;2023-03-18T09:02:40;97066.03;;;9.80;63.41
72210;BME280;60113;48.762;12.302;2023-03-18T09:05:05;97062.25;;;9.95;63.71
72210;BME280;60113;48.762;12.302;2023-03-18T09:07:32;97055.66;;;10.12;65.36
72210;BME280;60113;48.762;12.302;2023-03-18T09:09:58;97058.78;;;10.29;62.70
72210;BME280;60113;48.762;12.302;2023-03-18T09:12:23;97059.75;;;10.17;61.62
72210;BME280;60113;48.762;12.302;2023-03-18T09:14:48;97055.06;;;10.20;62.73
72210;BME280;60113;48.762;12.302;2023-03-18T09:17:14;97059.38;;;10.33;62.66
72210;BME280;60113;48.762;12.302;2023-03-18T09:19:39;97057.47;;;10.35;61.63
72210;BME280;60113;48.762;12.302;2023-03-18T09:22:08;97066.53;;;10.42;61.73
72210;BME280;60113;48.762;12.302;2023-03-18T09:24:34;97063.94;;;10.54;61.31
72210;BME280;60113;48.762;12.302;2023-03-18T09:27:02;97064.03;;;10.29;61.81
72210;BME280;60113;48.762;12.302;2023-03-18T09:29:28;97072.50;;;9.98;61.91
72210;BME280;60113;48.762;12.302;2023-03-18T09:31:53;97074.22;;;9.63;63.71
72210;BME280;60113;48.762;12.302;2023-03-18T09:34:19;97064.88;;;9.48;63.87
72210;BME280;60113;48.762;12.302;2023-03-18T09:36:45;97062.59;;;9.43;64.14
72210;BME280;60113;48.762;12.302;2023-03-18T09:39:18;97066.06;;;9.55;64.67
72210;BME280;60113;48.762;12.302;2023-03-18T09:44:22;97070.03;;;9.25;65.08
72210;BME280;60113;48.762;12.302;2023-03-18T09:49:22;97069.72;;;9.41;65.34
72210;BME280;60113;48.762;12.302;2023-03-18T09:51:57;97062.34;;;9.46;65.87
72210;BME280;60113;48.762;12.302;2023-03-18T09:56:58;97070.16;;;9.71;64.00
72210;BME280;60113;48.762;12.302;2023-03-18T09:59:28;97067.56;;;9.82;64.85
72210;BME280;60113;48.762;12.302;2023-03-18T10:01:56;97058.66;;;9.96;63.66
72210;BME280;60113;48.762;12.302;2023-03-18T10:04:25;97060.91;;;10.12;63.19
72210;BME280;60113;48.762;12.302;2023-03-18T10:06:54;97059.59;;;10.07;63.83
72210;BME280;60113;48.762;12.302;2023-03-18T10:09:29;97063.88;;;10.08;63.55
72210;BME280;60113;48.762;12.302;2023-03-18T10:11:58;97066.50;;;9.85;63.82
72210;BME280;60113;48.762;12.302;2023-03-18T10:14:31;97068.19;;;9.86;64.46
72210;BME280;60113;48.762;12.302;2023-03-18T10:19:54;97070.47;;;10.25;64.14
72210;BME280;60113;48.762;12.302;2023-03-18T10:22:42;97061.66;;;10.26;63.21
72210;BME280;60113;48.762;12.302;2023-03-18T10:38:18;97071.81;;;10.54;62.64
72210;BME280;60113;48.762;12.302;2023-03-18T10:40:47;97070.72;;;10.68;61.94
72210;BME280;60113;48.762;12.302;2023-03-18T10:43:17;97063.44;;;10.60;62.54
72210;BME280;60113;48.762;12.302;2023-03-18T10:45:44;97057.00;;;10.53;62.82
72210;BME280;60113;48.762;12.302;2023-03-18T10:56:21;97049.75;;;10.89;62.77
72210;BME280;60113;48.762;12.302;2023-03-18T10:58:46;97047.88;;;10.80;61.54
72210;BME280;60113;48.762;12.302;2023-03-18T11:01:13;97049.22;;;10.62;62.15
72210;BME280;60113;48.762;12.302;2023-03-18T11:03:49;97039.56;;;10.52;62.84
72210;BME280;60113;48.762;12.302;2023-03-18T11:09:01;97049.66;;;11.23;61.17
72210;BME280;60113;48.762;12.302;2023-03-18T11:11:29;97042.22;;;11.71;59.88
72210;BME280;60113;48.762;12.302;2023-03-18T11:13:58;97041.00;;;11.75;59.38
72210;BME280;60113;48.762;12.302;2023-03-18T11:16:30;97037.31;;;12.09;59.05
72210;BME280;60113;48.762;12.302;2023-03-18T11:18:57;97042.00;;;12.06;58.26
72210;BME280;60113;48.762;12.302;2023-03-18T11:21:23;97033.03;;;11.87;58.25
72210;BME280;60113;48.762;12.302;2023-03-18T11:23:56;97038.75;;;12.23;58.47
72210;BME280;60113;48.762;12.302;2023-03-18T11:26:55;97028.31;;;12.43;60.01
72210;BME280;60113;48.762;12.302;2023-03-18T11:29:22;97028.34;;;12.73;57.75
72210;BME280;60113;48.762;12.302;2023-03-18T11:31:50;97026.72;;;13.21;56.37
72210;BME280;60113;48.762;12.302;2023-03-18T11:34:17;97016.84;;;13.43;55.09
72210;BME280;60113;48.762;12.302;2023-03-18T11:36:58;97013.41;;;13.23;55.04
72210;BME280;60113;48.762;12.302;2023-03-18T11:39:29;97002.16;;;13.31;55.57
72210;BME280;60113;48.762;12.302;2023-03-18T11:41:56;97005.75;;;13.20;56.01
72210;BME280;60113;48.762;12.302;2023-03-18T11:44:30;97003.69;;;13.33;55.54
72210;BME280;60113;48.762;12.302;2023-03-18T11:47:05;97004.91;;;13.59;54.94
72210;BME280;60113;48.762;12.302;2023-03-18T11:49:34;96997.00;;;13.69;54.51
72210;BME280;60113;48.762;12.302;2023-03-18T11:56:56;96983.34;;;14.11;53.42
72210;BME280;60113;48.762;12.302;2023-03-18T12:04:37;96966.06;;;14.45;53.13
72210;BME280;60113;48.762;12.302;2023-03-18T12:25:54;96941.81;;;14.68;53.02
72210;BME280;60113;48.762;12.302;2023-03-18T12:33:53;96923.16;;;14.52;52.26
72210;BME280;60113;48.762;12.302;2023-03-18T12:47:10;96909.34;;;14.58;52.73
72210;BME280;60113;48.762;12.302;2023-03-18T12:49:42;96908.75;;;14.64;51.75
72210;BME280;60113;48.762;12.302;2023-03-18T12:54:56;96907.84;;;14.73;51.97
72210;BME280;60113;48.762;12.302;2023-03-18T12:57:37;96902.72;;;14.90;51.58
72210;BME280;60113;48.762;12.302;2023-03-18T13:05:52;96900.22;;;15.33;49.74
72210;BME280;60113;48.762;12.302;2023-03-18T13:08:37;96900.03;;;15.35;50.24
72210;BME280;60113;48.762;12.302;2023-03-18T13:11:09;96897.81;;;15.22;50.33
72210;BME280;60113;48.762;12.302;2023-03-18T13:13:36;96902.88;;;15.68;50.07
72210;BME280;60113;48.762;12.302;2023-03-18T13:16:09;96902.47;;;15.81;49.60
72210;BME280;60113;48.762;12.302;2023-03-18T13:18:38;96900.75;;;15.72;49.72
72210;BME280;60113;48.762;12.302;2023-03-18T13:21:07;96912.53;;;15.78;49.11
72210;BME280;60113;48.762;12.302;2023-03-18T13:29:03;96900.72;;;15.63;48.54
72210;BME280;60113;48.762;12.302;2023-03-18T13:35:21;96903.47;;;15.88;48.08
72210;BME280;60113;48.762;12.302;2023-03-18T13:40:07;96904.94;;;16.18;46.85
72210;BME280;60113;48.762;12.302;2023-03-18T13:42:38;96901.72;;;16.57;46.38
72210;BME280;60113;48.762;12.302;2023-03-18T13:47:34;96909.56;;;15.81;47.00
72210;BME280;60113;48.762;12.302;2023-03-18T13:50:06;96908.72;;;15.72;47.50
72210;BME280;60113;48.762;12.302;2023-03-18T13:52:51;96909.88;;;15.78;47.32
72210;BME280;60113;48.762;12.302;2023-03-18T13:55:26;96893.81;;;16.06;46.98
72210;BME280;60113;48.762;12.302;2023-03-18T13:58:07;96891.31;;;16.12;47.53
72210;BME280;60113;48.762;12.302;2023-03-18T14:00:39;96882.03;;;16.08;46.91
72210;BME280;60113;48.762;12.302;2023-03-18T14:07:56;96881.56;;;16.13;47.47
72210;BME280;60113;48.762;12.302;2023-03-18T14:10:24;96886.66;;;16.06;46.86
72210;BME280;60113;48.762;12.302;2023-03-18T14:12:50;96879.44;;;16.25;46.63
72210;BME280;60113;48.762;12.302;2023-03-18T14:15:36;96875.19;;;16.57;46.52
72210;BME280;60113;48.762;12.302;2023-03-18T14:18:01;96874.69;;;16.79;46.58
72210;BME280;60113;48.762;12.302;2023-03-18T14:20:35;96881.31;;;16.49;45.93
72210;BME280;60113;48.762;12.302;2023-03-18T14:23:18;96879.47;;;16.33;46.61
72210;BME280;60113;48.762;12.302;2023-03-18T14:25:49;96873.47;;;16.31;45.90
72210;BME280;60113;48.762;12.302;2023-03-18T14:28:21;96874.34;;;16.57;46.24
72210;BME280;60113;48.762;12.302;2023-03-18T14:30:50;96875.19;;;16.57;44.83
72210;BME280;60113;48.762;12.302;2023-03-18T14:35:49;96861.91;;;16.32;45.57
72210;BME280;60113;48.762;12.302;2023-03-18T14:38:19;96857.41;;;16.33;45.33
72210;BME280;60113;48.762;12.302;2023-03-18T14:40:48;96856.97;;;16.71;45.40
72210;BME280;60113;48.762;12.302;2023-03-18T14:43:17;96855.97;;;16.55;44.62
72210;BME280;60113;48.762;12.302;2023-03-18T14:45:46;96854.44;;;16.78;44.86
72210;BME280;60113;48.762;12.302;2023-03-18T14:48:18;96857.47;;;16.66;45.31
72210;BME280;60113;48.762;12.302;2023-03-18T14:50:45;96855.94;;;17.05;44.08